Time;durP1;ratioP1;P1;durP2;ratioP2;P2;SDS_P1;SDS_P2;PMS_P1;PMS_P2;Temp;Humidity;BMP_temperature;BMP_pressure;BME280_temperature;BME280_humidity;BME280_pressure;Samples;Min_cycle;Max_cycle;Signal;HPM_P1;HPM_P2
2022/06/08 00:01:18;;;;;;;1.08;0.13;;;12.10;99.90;;;;;;5021656;28;20215;-67
2022/06/08 00:03:58;;;;;;;0.85;0.00;;;12.10;99.80;;;;;;5015431;28;20030;-68
2022/06/08 00:06:25;;;;;;;1.25;0.40;;;12.20;99.90;;;;;;5029489;28;20021;-67
2022/06/08 00:08:53;;;;;;;0.77;0.45;;;12.20;99.70;;;;;;5035985;28;20467;-67
2022/06/08 00:11:20;;;;;;;3.13;0.47;;;12.30;99.40;;;;;;5037639;28;20474;-67
2022/06/08 00:13:48;;;;;;;2.00;0.20;;;12.30;99.20;;;;;;5030532;28;20508;-67
2022/06/08 00:16:17;;;;;;;1.15;0.40;;;12.10;99.40;;;;;;5025894;28;21299;-67
2022/06/08 00:18:45;;;;;;;1.10;0.28;;;12.30;99.90;;;;;;5027356;28;20511;-67
2022/06/08 00:21:14;;;;;;;2.63;0.10;;;12.20;99.20;;;;;;5029277;28;20116;-67
2022/06/08 00:23:43;;;;;;;1.38;0.10;;;12.30;99.60;;;;;;5023068;28;20037;-67
2022/06/08 00:26:10;;;;;;;0.50;0.10;;;12.20;99.10;;;;;;5027265;28;20025;-67
2022/06/08 00:28:38;;;;;;;0.68;0.10;;;12.10;99.10;;;;;;5028478;28;20503;-67
2022/06/08 00:31:06;;;;;;;0.50;0.32;;;12.30;99.00;;;;;;5026014;28;20504;-68
2022/06/08 00:33:33;;;;;;;1.58;0.20;;;12.40;99.50;;;;;;5025955;28;20129;-68
2022/06/08 00:36:00;;;;;;;0.55;0.10;;;12.70;99.40;;;;;;5029833;28;20030;-67
2022/06/08 00:38:28;;;;;;;2.70;0.30;;;12.70;98.40;;;;;;5030470;28;20037;-67
2022/06/08 00:41:29;;;;;;;2.50;0.10;;;12.60;98.60;;;;;;5024460;28;20041;-66
2022/06/08 00:43:57;;;;;;;0.77;0.20;;;12.60;98.10;;;;;;5027785;28;20030;-67
2022/06/08 00:46:25;;;;;;;0.50;0.10;;;12.70;98.90;;;;;;5026476;28;20033;-67
2022/06/08 00:49:03;;;;;;;0.88;0.10;;;12.60;98.10;;;;;;5030741;28;20116;-67
2022/06/08 00:51:30;;;;;;;2.55;0.10;;;12.60;98.30;;;;;;5026368;28;20390;-67
2022/06/08 00:54:04;;;;;;;0.10;0.00;;;12.80;98.40;;;;;;5031035;28;20103;-67
2022/06/08 00:56:41;;;;;;;1.15;0.00;;;12.70;97.60;;;;;;5024856;28;20373;-67
2022/06/08 00:59:10;;;;;;;1.45;0.10;;;12.80;97.60;;;;;;5025299;28;20037;-68
2022/06/08 01:01:38;;;;;;;2.08;0.10;;;12.90;97.60;;;;;;5026977;28;20033;-68
2022/06/08 01:04:15;;;;;;;0.57;0.15;;;13.00;98.00;;;;;;5029939;28;20041;-67
2022/06/08 01:06:45;;;;;;;0.43;0.10;;;13.20;98.40;;;;;;5027832;28;20105;-67
2022/06/08 01:09:26;;;;;;;1.17;0.10;;;13.30;98.10;;;;;;5028733;28;20492;-67
2022/06/08 01:11:56;;;;;;;0.60;0.10;;;13.40;97.60;;;;;;5026220;28;20022;-67
2022/06/08 01:14:23;;;;;;;1.77;0.10;;;13.30;97.30;;;;;;5029319;28;20022;-67
2022/06/08 01:17:07;;;;;;;5.18;0.10;;;13.10;96.80;;;;;;5026588;28;20051;-67
2022/06/08 01:19:37;;;;;;;1.25;0.40;;;13.10;96.70;;;;;;5027207;28;20025;-67
2022/06/08 01:22:06;;;;;;;0.85;0.10;;;13.00;96.60;;;;;;5027146;28;20076;-67
2022/06/08 01:24:35;;;;;;;1.65;0.13;;;13.20;96.90;;;;;;5027388;28;20044;-67
2022/06/08 01:27:08;;;;;;;2.83;0.25;;;13.10;96.70;;;;;;5023482;28;20013;-65
2022/06/08 01:30:13;;;;;;;0.95;0.10;;;13.20;96.90;;;;;;5029113;28;20022;-65
2022/06/08 01:33:01;;;;;;;1.75;0.10;;;13.30;96.40;;;;;;5030770;28;20402;-65
2022/06/08 01:35:43;;;;;;;1.88;0.20;;;13.30;96.90;;;;;;5026821;28;20026;-66
2022/06/08 01:38:22;;;;;;;0.35;0.10;;;13.40;96.30;;;;;;5023072;28;20033;-66
2022/06/08 01:41:10;;;;;;;0.98;0.20;;;13.50;96.90;;;;;;5023742;28;20041;-65
2022/06/08 01:44:07;;;;;;;4.93;0.10;;;13.50;96.50;;;;;;5027681;28;20072;-65
2022/06/08 01:46:43;;;;;;;1.13;0.10;;;13.60;96.60;;;;;;5027508;28;20025;-66
2022/06/08 01:49:21;;;;;;;2.72;0.38;;;13.80;95.80;;;;;;5027277;28;20406;-66
2022/06/08 01:52:19;;;;;;;4.18;0.20;;;13.90;96.10;;;;;;5026941;28;20025;-66
2022/06/08 01:55:08;;;;;;;1.45;0.13;;;14.00;95.60;;;;;;5027704;28;20037;-66
2022/06/08 01:57:41;;;;;;;0.98;0.10;;;13.80;95.00;;;;;;5027709;28;20564;-67
2022/06/08 02:00:13;;;;;;;0.52;0.10;;;13.90;94.60;;;;;;5026689;28;20516;-67
2022/06/08 02:02:51;;;;;;;1.23;0.38;;;13.80;94.70;;;;;;5028241;28;20120;-67
2022/06/08 02:05:37;;;;;;;0.30;0.10;;;13.90;95.30;;;;;;5027249;28;20025;-67
2022/06/08 02:08:31;;;;;;;0.52;0.10;;;13.90;95.20;;;;;;5027237;28;20172;-67
2022/06/08 02:11:39;;;;;;;0.75;0.10;;;14.00;95.00;;;;;;5026991;28;20496;-66
2022/06/08 02:14:31;;;;;;;1.70;0.10;;;14.20;94.90;;;;;;5024654;28;20028;-66
2022/06/08 02:17:28;;;;;;;3.70;0.10;;;14.50;94.80;;;;;;5028257;28;20120;-67
2022/06/08 02:20:06;;;;;;;3.10;0.52;;;14.70;94.40;;;;;;5028675;28;20513;-66
2022/06/08 02:23:04;;;;;;;0.82;0.05;;;14.80;94.10;;;;;;5025098;28;20033;-67
2022/06/08 02:25:37;;;;;;;0.82;0.10;;;14.90;94.10;;;;;;5025650;28;20138;-67
2022/06/08 02:28:28;;;;;;;0.65;0.20;;;14.70;94.10;;;;;;5029033;28;20029;-67
2022/06/08 02:31:22;;;;;;;0.52;0.13;;;15.30;95.00;;;;;;5027615;28;20056;-67
2022/06/08 02:34:33;;;;;;;3.83;0.10;;;15.50;94.00;;;;;;5024366;28;20040;-67
2022/06/08 02:37:17;;;;;;;1.15;0.08;;;15.70;94.10;;;;;;5029442;28;20792;-67
2022/06/08 02:39:53;;;;;;;0.93;0.10;;;15.60;93.60;;;;;;5025535;28;20071;-67
2022/06/08 02:42:30;;;;;;;1.52;0.20;;;15.20;93.70;;;;;;5024889;28;20029;-68
2022/06/08 02:45:38;;;;;;;0.73;0.10;;;15.50;93.80;;;;;;5026379;28;20033;-68
2022/06/08 02:48:09;;;;;;;0.35;0.20;;;14.90;93.10;;;;;;5027270;28;20136;-67
2022/06/08 02:50:39;;;;;;;2.00;0.20;;;14.90;93.30;;;;;;5026613;28;20482;-68
2022/06/08 02:53:10;;;;;;;0.88;0.13;;;15.00;93.50;;;;;;5029101;28;20049;-68
2022/06/08 02:55:47;;;;;;;0.70;0.10;;;15.10;94.00;;;;;;5024865;28;20498;-68
2022/06/08 02:58:23;;;;;;;1.05;0.10;;;15.00;93.10;;;;;;5027907;28;20079;-68
2022/06/08 03:01:01;;;;;;;1.23;0.10;;;15.10;93.20;;;;;;5023625;28;20033;-68
2022/06/08 03:03:43;;;;;;;0.75;0.05;;;15.30;93.60;;;;;;5022644;28;20033;-68
2022/06/08 03:06:18;;;;;;;0.95;0.20;;;15.10;93.40;;;;;;5024230;28;20029;-68
2022/06/08 03:08:57;;;;;;;0.77;0.10;;;15.00;93.60;;;;;;5047579;28;20038;-68
2022/06/08 03:11:27;;;;;;;0.57;0.03;;;15.10;93.00;;;;;;5013219;28;20032;-68
2022/06/08 03:14:02;;;;;;;0.82;0.10;;;15.10;93.10;;;;;;5015294;28;20049;-68
2022/06/08 03:16:52;;;;;;;2.00;0.00;;;14.90;93.40;;;;;;5020689;28;20504;-68
2022/06/08 03:19:20;;;;;;;0.38;0.03;;;14.70;92.80;;;;;;5029837;28;20467;-68
2022/06/08 03:21:48;;;;;;;1.75;0.00;;;14.80;93.40;;;;;;5023802;28;20494;-68
2022/06/08 03:24:17;;;;;;;0.73;0.10;;;15.10;93.10;;;;;;5031254;28;20428;-68
2022/06/08 03:26:52;;;;;;;0.32;0.32;;;14.90;93.10;;;;;;5026266;28;20041;-67
2022/06/08 03:29:19;;;;;;;3.42;0.20;;;14.70;93.50;;;;;;5015605;28;20045;-68
2022/06/08 03:31:47;;;;;;;0.13;0.08;;;14.90;93.40;;;;;;5031504;28;20018;-68
2022/06/08 03:34:15;;;;;;;0.22;0.03;;;15.00;92.80;;;;;;5034020;28;20506;-67
2022/06/08 03:36:42;;;;;;;1.50;0.10;;;14.70;92.60;;;;;;5032611;28;20120;-67
2022/06/08 03:39:10;;;;;;;1.25;0.00;;;14.80;92.90;;;;;;5023690;28;20378;-68
2022/06/08 03:41:37;;;;;;;0.77;0.10;;;14.70;92.50;;;;;;5035708;28;20053;-68
2022/06/08 03:44:05;;;;;;;1.90;0.20;;;14.60;93.20;;;;;;5019584;28;20033;-68
2022/06/08 03:46:36;;;;;;;0.43;0.10;;;14.60;93.10;;;;;;5021861;28;20034;-66
2022/06/08 03:49:06;;;;;;;1.38;0.38;;;14.90;93.20;;;;;;5028633;28;20612;-66
2022/06/08 03:51:35;;;;;;;0.52;0.00;;;14.70;92.70;;;;;;5037403;28;20037;-67
2022/06/08 03:54:11;;;;;;;1.35;0.10;;;14.70;92.70;;;;;;5040945;28;20401;-67
2022/06/08 03:56:40;;;;;;;0.93;0.00;;;14.80;92.90;;;;;;5035871;28;20473;-67
2022/06/08 03:59:08;;;;;;;0.20;0.00;;;14.50;92.40;;;;;;5029209;28;20391;-68
2022/06/08 04:01:35;;;;;;;1.05;0.20;;;14.50;93.00;;;;;;5018484;28;20104;-67
2022/06/08 04:04:03;;;;;;;1.80;0.05;;;14.40;92.40;;;;;;5037659;28;20081;-67
2022/06/08 04:06:31;;;;;;;1.30;0.10;;;14.60;92.20;;;;;;5027160;28;20029;-66
2022/06/08 04:08:58;;;;;;;1.85;0.43;;;14.60;92.40;;;;;;5046953;28;20113;-67
2022/06/08 04:11:25;;;;;;;1.67;0.10;;;14.40;92.40;;;;;;5025414;28;20098;-66
2022/06/08 04:13:53;;;;;;;0.32;0.00;;;14.30;92.40;;;;;;5024404;28;20521;-67
2022/06/08 04:16:20;;;;;;;1.52;0.38;;;14.30;92.90;;;;;;5016778;28;20037;-67
2022/06/08 04:18:47;;;;;;;0.65;0.10;;;14.50;92.90;;;;;;5026022;28;20034;-66
2022/06/08 04:21:16;;;;;;;2.38;0.20;;;14.50;92.70;;;;;;5014488;28;20034;-67
2022/06/08 04:23:45;;;;;;;0.28;0.10;;;14.40;92.50;;;;;;5015068;28;20028;-66
2022/06/08 04:26:14;;;;;;;0.60;0.10;;;14.30;92.50;;;;;;5024434;28;20637;-67
2022/06/08 04:28:42;;;;;;;2.67;0.10;;;14.20;92.50;;;;;;5016406;28;20537;-67
2022/06/08 04:31:10;;;;;;;3.55;0.20;;;14.40;93.20;;;;;;5027602;28;20041;-67
2022/06/08 04:33:38;;;;;;;1.55;0.10;;;14.30;93.00;;;;;;5015678;28;20022;-66
2022/06/08 04:36:06;;;;;;;0.98;0.38;;;14.40;92.70;;;;;;5021712;28;20041;-67
2022/06/08 04:38:34;;;;;;;0.20;0.10;;;14.40;93.00;;;;;;5022902;28;20029;-66
2022/06/08 04:41:02;;;;;;;2.65;0.10;;;14.30;92.90;;;;;;5029229;28;20030;-66
2022/06/08 04:43:30;;;;;;;0.45;0.10;;;14.30;93.00;;;;;;5015931;28;20030;-66
2022/06/08 04:45:57;;;;;;;0.60;0.00;;;14.30;93.30;;;;;;5023480;28;20516;-66
2022/06/08 04:48:25;;;;;;;2.58;0.10;;;14.20;93.20;;;;;;5019704;28;20251;-67
2022/06/08 04:50:52;;;;;;;0.65;0.10;;;14.10;93.20;;;;;;5015951;28;20017;-66
2022/06/08 04:53:19;;;;;;;0.30;0.00;;;14.20;93.20;;;;;;5016083;28;20103;-66
2022/06/08 04:55:47;;;;;;;0.28;0.10;;;14.10;92.90;;;;;;5017648;28;20045;-66
2022/06/08 04:58:14;;;;;;;1.52;0.17;;;14.10;93.00;;;;;;5031977;28;20064;-66
2022/06/08 05:00:41;;;;;;;0.52;0.05;;;14.20;93.20;;;;;;5026510;28;20117;-66
2022/06/08 05:03:08;;;;;;;0.55;0.10;;;14.10;92.80;;;;;;5035604;28;20478;-66
2022/06/08 05:05:39;;;;;;;0.30;0.00;;;14.10;93.10;;;;;;5028986;28;20034;-66
2022/06/08 05:08:08;;;;;;;0.10;0.00;;;14.20;93.00;;;;;;5015420;28;20382;-66
2022/06/08 05:10:37;;;;;;;1.88;0.10;;;14.30;92.40;;;;;;5014874;28;20026;-66
2022/06/08 05:13:06;;;;;;;1.45;0.20;;;14.30;92.50;;;;;;5026893;28;20025;-66
2022/06/08 05:15:36;;;;;;;1.35;0.10;;;14.30;93.10;;;;;;5033223;28;20045;-66
2022/06/08 05:18:05;;;;;;;0.73;0.17;;;14.30;93.00;;;;;;5033716;28;20155;-66
2022/06/08 05:20:35;;;;;;;1.77;0.10;;;14.20;92.80;;;;;;5038814;28;20041;-66
2022/06/08 05:23:04;;;;;;;0.40;0.10;;;14.20;92.90;;;;;;5020594;28;20387;-66
2022/06/08 05:25:37;;;;;;;0.35;0.00;;;14.20;92.90;;;;;;5021507;28;20026;-66
2022/06/08 05:28:06;;;;;;;1.77;0.10;;;14.20;92.70;;;;;;5025788;28;20088;-66
2022/06/08 05:30:34;;;;;;;2.25;0.13;;;14.20;92.80;;;;;;5028392;28;20032;-67
2022/06/08 05:33:03;;;;;;;2.38;0.65;;;14.30;92.90;;;;;;5029046;28;20054;-66
2022/06/08 05:35:31;;;;;;;2.08;0.25;;;14.20;93.10;;;;;;5038093;28;20429;-66
2022/06/08 05:37:58;;;;;;;0.75;0.10;;;14.20;93.10;;;;;;5030403;28;20021;-66
2022/06/08 05:40:37;;;;;;;3.78;0.10;;;14.10;93.30;;;;;;5023237;28;20033;-66
2022/06/08 05:43:09;;;;;;;0.40;0.10;;;14.10;93.20;;;;;;5031549;28;20367;-66
2022/06/08 05:45:38;;;;;;;2.83;0.10;;;14.10;93.00;;;;;;5035072;28;20025;-67
2022/06/08 05:48:06;;;;;;;3.60;0.25;;;14.00;93.20;;;;;;5038503;28;20040;-66
2022/06/08 05:50:35;;;;;;;1.20;0.10;;;13.90;93.40;;;;;;5033951;28;20139;-66
2022/06/08 05:53:03;;;;;;;0.73;0.10;;;13.90;93.10;;;;;;5028653;28;20026;-66
2022/06/08 05:55:30;;;;;;;2.03;0.10;;;13.90;93.30;;;;;;5031399;28;20588;-65
2022/06/08 05:57:57;;;;;;;0.55;0.10;;;13.90;93.20;;;;;;5039138;28;20040;-66
2022/06/08 06:00:32;;;;;;;0.25;0.10;;;13.80;93.10;;;;;;5036008;28;20110;-65
2022/06/08 06:03:00;;;;;;;1.00;0.20;;;13.70;93.40;;;;;;5039001;28;20117;-65
2022/06/08 06:05:32;;;;;;;0.28;0.20;;;13.80;93.40;;;;;;5044559;28;20045;-65
2022/06/08 06:08:00;;;;;;;4.10;0.10;;;13.70;93.40;;;;;;5038291;28;20017;-65
2022/06/08 06:10:29;;;;;;;0.40;0.08;;;13.70;93.60;;;;;;5052617;28;20435;-65
2022/06/08 06:12:57;;;;;;;0.10;0.00;;;13.60;93.70;;;;;;5057054;28;20020;-66
2022/06/08 06:15:25;;;;;;;5.13;0.30;;;13.50;93.90;;;;;;5047455;28;20030;-65
2022/06/08 06:17:53;;;;;;;0.40;0.10;;;13.40;93.70;;;;;;5043195;28;20382;-65
2022/06/08 06:20:20;;;;;;;2.00;0.63;;;13.40;93.70;;;;;;5022847;28;20021;-66
2022/06/08 06:22:48;;;;;;;0.60;0.13;;;13.40;94.40;;;;;;5020790;28;20041;-66
2022/06/08 06:25:15;;;;;;;0.70;0.15;;;13.30;93.70;;;;;;5026554;28;20127;-67
2022/06/08 06:27:43;;;;;;;1.13;0.10;;;13.20;94.00;;;;;;5020086;28;20046;-66
2022/06/08 06:30:12;;;;;;;0.68;0.20;;;13.20;94.10;;;;;;5026420;28;20500;-67
2022/06/08 06:32:41;;;;;;;1.80;0.17;;;13.20;94.30;;;;;;5015189;28;20123;-66
2022/06/08 06:35:15;;;;;;;1.27;0.20;;;13.00;94.70;;;;;;5021569;28;20029;-66
2022/06/08 06:37:42;;;;;;;1.27;0.47;;;13.00;94.80;;;;;;5022573;28;20394;-66
2022/06/08 06:40:10;;;;;;;0.28;0.10;;;12.90;95.10;;;;;;5022771;28;20437;-66
2022/06/08 06:42:38;;;;;;;2.50;0.20;;;12.90;95.30;;;;;;5028869;28;20029;-66
2022/06/08 06:45:06;;;;;;;2.53;0.43;;;12.80;95.60;;;;;;5042846;28;20104;-66
2022/06/08 06:47:33;;;;;;;0.82;0.20;;;12.80;95.50;;;;;;5026047;28;20033;-66
2022/06/08 06:50:01;;;;;;;3.00;0.47;;;12.70;95.80;;;;;;5014392;28;20108;-66
2022/06/08 06:52:28;;;;;;;0.45;0.15;;;12.60;96.10;;;;;;5017596;28;20095;-66
2022/06/08 06:54:55;;;;;;;0.63;0.20;;;12.60;96.00;;;;;;5023790;28;20056;-67
2022/06/08 06:57:23;;;;;;;1.48;0.20;;;12.50;96.10;;;;;;5013681;28;20069;-66
2022/06/08 06:59:50;;;;;;;1.25;0.20;;;12.50;96.20;;;;;;5021934;28;20462;-66
2022/06/08 07:02:21;;;;;;;1.25;0.40;;;12.40;96.20;;;;;;5016358;28;20137;-67
2022/06/08 07:04:49;;;;;;;2.35;0.30;;;12.50;96.30;;;;;;5014839;28;20029;-66
2022/06/08 07:07:17;;;;;;;2.47;0.28;;;12.40;96.50;;;;;;5025213;28;20030;-66
2022/06/08 07:09:44;;;;;;;1.10;0.20;;;12.30;96.50;;;;;;5028332;28;20378;-66
2022/06/08 07:12:13;;;;;;;1.50;0.52;;;12.30;96.80;;;;;;5031570;28;20393;-66
2022/06/08 07:14:41;;;;;;;2.72;0.20;;;12.20;96.80;;;;;;5032951;28;20026;-67
2022/06/08 07:17:09;;;;;;;0.63;0.40;;;12.30;97.00;;;;;;5025844;28;20493;-67
2022/06/08 07:19:37;;;;;;;1.83;0.50;;;12.20;97.20;;;;;;5026185;28;20029;-66
2022/06/08 07:22:05;;;;;;;2.47;0.40;;;12.10;97.10;;;;;;5028072;28;20047;-66
2022/06/08 07:24:33;;;;;;;2.25;0.45;;;12.10;97.30;;;;;;5029580;28;20042;-66
2022/06/08 07:27:03;;;;;;;0.98;0.38;;;12.10;97.40;;;;;;5018584;28;20022;-67
2022/06/08 07:29:30;;;;;;;0.90;0.28;;;12.00;97.40;;;;;;5018679;28;20386;-67
2022/06/08 07:31:58;;;;;;;1.13;0.25;;;12.00;97.30;;;;;;5025133;28;20029;-68
2022/06/08 07:34:26;;;;;;;1.38;0.35;;;11.90;97.40;;;;;;5012141;28;20042;-67
2022/06/08 07:36:53;;;;;;;0.40;0.30;;;11.80;97.70;;;;;;5023307;28;20017;-67
2022/06/08 07:39:21;;;;;;;1.65;0.43;;;11.80;97.60;;;;;;5023623;28;20037;-67
2022/06/08 07:41:49;;;;;;;2.13;0.70;;;11.80;97.70;;;;;;5018151;28;20056;-67
2022/06/08 07:44:18;;;;;;;1.63;0.35;;;11.60;97.80;;;;;;5023214;28;20489;-67
2022/06/08 07:46:47;;;;;;;1.95;0.40;;;11.60;97.70;;;;;;5016038;28;20021;-67
2022/06/08 07:52:10;;;;;;;3.88;0.90;;;11.60;97.60;;;;;;5044803;28;20067;-67
2022/06/08 07:54:38;;;;;;;5.93;0.32;;;11.50;97.60;;;;;;5029601;28;20045;-67
2022/06/08 07:57:07;;;;;;;1.00;0.20;;;11.50;97.60;;;;;;5018590;28;20030;-67
2022/06/08 07:59:36;;;;;;;3.38;0.35;;;11.50;97.40;;;;;;5034659;28;20029;-67
2022/06/08 08:02:05;;;;;;;3.28;0.38;;;11.40;97.40;;;;;;5036941;28;20107;-67
2022/06/08 08:04:32;;;;;;;2.80;0.30;;;11.40;97.50;;;;;;5035123;28;20026;-67
2022/06/08 08:07:00;;;;;;;1.35;0.32;;;11.30;97.60;;;;;;5037205;28;20048;-67
2022/06/08 08:09:27;;;;;;;0.73;0.15;;;11.20;97.40;;;;;;5019466;28;20080;-67
2022/06/08 08:11:55;;;;;;;0.50;0.22;;;11.20;97.30;;;;;;5038717;28;20032;-67
2022/06/08 08:14:24;;;;;;;3.63;0.30;;;11.30;97.60;;;;;;5019030;28;20121;-67
2022/06/08 08:16:52;;;;;;;0.63;0.13;;;11.30;97.50;;;;;;5033749;28;20033;-67
2022/06/08 08:19:23;;;;;;;1.40;0.20;;;11.30;97.50;;;;;;5045349;28;20033;-67
2022/06/08 08:21:51;;;;;;;0.63;0.20;;;11.10;97.60;;;;;;5037697;28;20037;-67
2022/06/08 08:24:19;;;;;;;1.17;0.15;;;11.10;97.90;;;;;;5019132;28;20025;-67
2022/06/08 08:26:51;;;;;;;1.35;0.20;;;11.00;97.90;;;;;;5015846;28;20076;-67
2022/06/08 08:29:19;;;;;;;2.47;0.30;;;11.00;98.00;;;;;;5016651;28;20029;-67
2022/06/08 08:31:47;;;;;;;1.90;0.10;;;11.00;98.00;;;;;;5036570;28;20555;-67
2022/06/08 08:34:14;;;;;;;1.05;0.20;;;11.10;97.90;;;;;;5028067;28;20029;-67
2022/06/08 08:36:42;;;;;;;1.65;0.22;;;11.00;98.20;;;;;;5034154;28;20021;-67
2022/06/08 08:39:10;;;;;;;0.40;0.10;;;11.00;98.10;;;;;;5038223;28;20035;-67
2022/06/08 08:44:41;;;;;;;2.58;0.22;;;10.90;98.20;;;;;;5036338;28;20037;-67
2022/06/08 08:47:24;;;;;;;0.80;0.20;;;10.80;98.30;;;;;;5034497;28;20524;-67
2022/06/08 08:50:02;;;;;;;2.20;0.10;;;10.70;98.60;;;;;;5039303;28;20024;-68
2022/06/08 08:52:51;;;;;;;1.48;0.63;;;10.80;98.70;;;;;;5035700;28;20489;-67
2022/06/08 08:55:43;;;;;;;3.10;0.40;;;10.70;98.90;;;;;;5027691;28;20075;-67
2022/06/08 08:58:14;;;;;;;1.23;0.30;;;10.60;98.80;;;;;;5021111;28;20116;-68
2022/06/08 09:00:49;;;;;;;0.25;0.15;;;10.60;98.90;;;;;;5030815;28;20026;-67
2022/06/08 09:03:21;;;;;;;1.77;0.80;;;10.60;98.70;;;;;;5023343;28;20056;-68
2022/06/08 09:05:51;;;;;;;0.60;0.30;;;10.60;98.90;;;;;;5034344;28;20359;-68
2022/06/08 09:08:21;;;;;;;1.65;0.40;;;10.60;98.90;;;;;;5032807;28;20021;-68
2022/06/08 09:10:50;;;;;;;0.80;0.20;;;10.60;98.90;;;;;;5049512;28;20040;-68
2022/06/08 09:13:25;;;;;;;1.63;0.30;;;10.50;99.00;;;;;;5052350;28;20052;-68
2022/06/08 09:15:59;;;;;;;3.10;0.30;;;10.50;99.10;;;;;;5026354;28;20032;-68
2022/06/08 09:18:34;;;;;;;3.55;0.80;;;10.60;99.20;;;;;;5041144;28;20034;-68
2022/06/08 09:21:34;;;;;;;0.90;0.25;;;10.50;99.00;;;;;;5019203;28;20112;-69
2022/06/08 09:24:30;;;;;;;1.15;0.30;;;10.50;99.40;;;;;;5033178;28;20044;-68
2022/06/08 09:27:12;;;;;;;0.95;0.20;;;10.50;99.10;;;;;;5052008;28;20036;-69
2022/06/08 09:29:51;;;;;;;1.23;0.40;;;10.50;99.30;;;;;;5040811;28;20033;-68
2022/06/08 09:32:46;;;;;;;2.92;0.65;;;10.40;99.40;;;;;;5027791;28;20028;-68
2022/06/08 09:35:28;;;;;;;3.83;0.60;;;10.40;99.40;;;;;;5032720;28;20479;-68
2022/06/08 09:38:15;;;;;;;4.15;0.55;;;10.40;99.50;;;;;;5042721;28;20482;-68
2022/06/08 09:40:45;;;;;;;5.35;1.05;;;10.30;99.70;;;;;;5035696;28;20038;-68
2022/06/08 09:43:38;;;;;;;3.92;2.80;;;10.30;99.80;;;;;;5034937;28;20057;-68
2022/06/08 09:46:15;;;;;;;1.67;0.60;;;10.20;99.90;;;;;;5036771;28;20112;-68
2022/06/08 09:51:55;;;;;;;5.82;0.70;;;10.30;99.90;;;;;;5036365;28;20493;-68
2022/06/08 09:54:32;;;;;;;3.72;0.82;;;10.10;99.90;;;;;;5021094;28;20038;-68
2022/06/08 09:57:21;;;;;;;1.15;0.57;;;10.10;99.90;;;;;;5035581;28;20013;-67
2022/06/08 10:00:35;;;;;;;2.22;1.90;;;10.10;99.90;;;;;;5049699;28;20107;-68
2022/06/08 10:03:30;;;;;;;3.58;1.30;;;10.10;99.90;;;;;;5040844;28;20037;-68
2022/06/08 10:06:16;;;;;;;1.83;0.68;;;10.00;99.90;;;;;;5032146;28;20030;-68
2022/06/08 10:08:58;;;;;;;3.45;0.75;;;10.10;99.90;;;;;;5038120;28;20076;-68
2022/06/08 10:11:43;;;;;;;2.30;0.57;;;10.00;99.90;;;;;;5035240;28;20118;-68
2022/06/08 10:14:31;;;;;;;2.28;0.22;;;9.90;99.90;;;;;;5041315;28;20469;-68
2022/06/08 10:17:16;;;;;;;1.27;0.35;;;9.90;99.90;;;;;;5034666;28;20052;-68
2022/06/08 10:20:01;;;;;;;1.73;0.38;;;10.00;99.90;;;;;;5024111;28;20021;-68
2022/06/08 10:22:29;;;;;;;;;;;9.80;99.90;;;;;;5038418;28;20036;-68
2022/06/08 10:25:19;;;;;;;9.93;6.28;;;9.90;99.90;;;;;;5032290;28;19995;-67
2022/06/08 10:27:58;;;;;;;1.17;0.50;;;9.90;99.90;;;;;;5026851;28;20041;-68
2022/06/08 10:30:42;;;;;;;0.95;0.40;;;9.90;99.90;;;;;;5020607;28;20045;-68
2022/06/08 10:33:45;;;;;;;2.00;0.47;;;9.80;99.90;;;;;;5046073;28;20388;-68
2022/06/08 10:36:13;;;;;;;1.33;0.40;;;9.80;99.90;;;;;;5028794;28;20031;-67
2022/06/08 10:38:43;;;;;;;1.40;0.40;;;9.80;99.90;;;;;;5048921;28;20028;-67
2022/06/08 10:44:32;;;;;;;4.20;1.48;;;9.70;99.90;;;;;;5042967;28;20051;-68
2022/06/08 10:47:26;;;;;;;2.42;0.50;;;9.60;99.90;;;;;;5033805;28;20022;-68
2022/06/08 10:50:15;;;;;;;1.70;0.40;;;9.70;99.90;;;;;;5034492;28;20109;-67
2022/06/08 10:52:47;;;;;;;5.38;1.20;;;9.70;99.90;;;;;;5046810;28;20033;-67
2022/06/08 10:55:17;;;;;;;1.40;0.50;;;9.60;99.90;;;;;;5023990;28;20065;-68
2022/06/08 10:58:01;;;;;;;3.42;0.50;;;9.60;99.90;;;;;;5044386;28;20033;-68
2022/06/08 11:00:58;;;;;;;6.63;0.65;;;9.60;99.90;;;;;;5038201;28;20018;-68
2022/06/08 11:03:54;;;;;;;3.28;0.70;;;9.30;99.90;;;;;;5012867;28;20038;-67
2022/06/08 11:06:46;;;;;;;3.80;0.65;;;9.30;99.90;;;;;;5022282;28;20030;-68
2022/06/08 11:09:44;;;;;;;1.42;0.57;;;9.30;99.90;;;;;;5015899;28;20083;-68
2022/06/08 11:12:14;;;;;;;2.55;0.70;;;9.30;99.90;;;;;;5018855;28;20378;-68
2022/06/08 11:14:44;;;;;;;3.65;0.50;;;9.40;99.90;;;;;;5019498;28;20022;-68
2022/06/08 11:17:36;;;;;;;3.45;0.80;;;9.30;99.90;;;;;;5022856;28;20032;-67
2022/06/08 11:20:32;;;;;;;2.42;0.68;;;9.30;99.90;;;;;;5022859;28;20382;-68
2022/06/08 11:23:18;;;;;;;3.33;0.88;;;9.30;99.90;;;;;;5026532;28;20049;-67
2022/06/08 11:26:06;;;;;;;3.08;0.85;;;9.40;99.90;;;;;;5028987;28;20074;-68
2022/06/08 11:28:33;;;;;;;1.88;0.63;;;9.30;99.90;;;;;;5029051;28;20071;-69
2022/06/08 11:31:08;;;;;;;2.60;0.80;;;9.20;99.90;;;;;;5018378;28;20033;-68
2022/06/08 11:34:03;;;;;;;3.53;0.60;;;9.20;99.90;;;;;;5029802;28;20026;-68
2022/06/08 11:36:53;;;;;;;3.13;1.02;;;9.10;99.90;;;;;;5023116;28;20029;-69
2022/06/08 11:39:47;;;;;;;3.50;0.82;;;9.10;99.90;;;;;;5028875;28;20356;-68
2022/06/08 11:42:24;;;;;;;2.80;0.90;;;9.20;99.90;;;;;;5031238;28;20394;-68
2022/06/08 11:45:14;;;;;;;3.40;1.02;;;9.20;99.90;;;;;;5037052;28;20401;-68
2022/06/08 11:48:02;;;;;;;1.23;0.50;;;9.20;99.90;;;;;;5027637;28;20041;-69
2022/06/08 11:50:43;;;;;;;2.90;0.80;;;9.10;99.90;;;;;;5036797;28;20143;-68
2022/06/08 11:53:38;;;;;;;4.18;0.73;;;9.20;99.90;;;;;;5042667;28;20034;-69
2022/06/08 11:56:05;;;;;;;3.72;0.55;;;9.30;99.90;;;;;;5048949;28;20508;-68
2022/06/08 11:58:34;;;;;;;2.92;0.70;;;9.20;99.90;;;;;;5034192;28;20025;-65
2022/06/08 12:01:16;;;;;;;2.92;0.80;;;9.10;99.90;;;;;;5024907;28;20037;-66
2022/06/08 12:03:49;;;;;;;4.13;0.70;;;9.20;99.90;;;;;;5022467;28;20083;-68
2022/06/08 12:06:25;;;;;;;1.55;0.70;;;9.20;99.90;;;;;;5038279;28;20028;-68
2022/06/08 12:09:01;;;;;;;2.60;0.47;;;9.10;99.90;;;;;;5018321;28;20530;-66
2022/06/08 12:11:33;;;;;;;2.88;0.73;;;9.20;99.90;;;;;;5035294;28;20028;-66
2022/06/08 12:14:17;;;;;;;3.70;0.70;;;9.20;99.90;;;;;;5022621;28;20018;-66
2022/06/08 12:17:09;;;;;;;3.17;0.57;;;9.20;99.90;;;;;;5034381;28;20026;-66
2022/06/08 12:19:55;;;;;;;2.17;0.55;;;9.20;99.90;;;;;;5044252;28;20121;-66
2022/06/08 12:22:24;;;;;;;2.10;0.55;;;9.30;99.90;;;;;;5027377;28;20111;-67
2022/06/08 12:25:13;;;;;;;1.77;0.55;;;9.20;99.90;;;;;;5032752;28;20087;-67
2022/06/08 12:27:44;;;;;;;3.70;0.50;;;9.10;99.90;;;;;;5026883;28;20030;-67
2022/06/08 12:30:35;;;;;;;2.83;0.60;;;9.00;99.90;;;;;;5029183;28;20021;-67
2022/06/08 12:33:16;;;;;;;1.65;0.40;;;9.10;99.90;;;;;;5041346;28;20067;-67
2022/06/08 12:36:00;;;;;;;3.15;0.55;;;9.00;99.90;;;;;;5024280;28;20057;-67
2022/06/08 12:38:33;;;;;;;2.65;0.43;;;9.10;99.90;;;;;;5025567;28;20022;-67
2022/06/08 12:41:15;;;;;;;5.35;0.52;;;9.00;99.90;;;;;;5044076;28;20040;-67
2022/06/08 12:43:48;;;;;;;2.03;0.52;;;9.00;99.90;;;;;;5028015;28;20486;-67
2022/06/08 12:46:28;;;;;;;1.25;0.38;;;9.00;99.90;;;;;;5033642;28;20385;-67
2022/06/08 12:48:58;;;;;;;3.22;0.55;;;9.10;99.90;;;;;;5039228;28;20029;-67
2022/06/08 12:51:51;;;;;;;2.47;0.77;;;9.20;99.90;;;;;;5051796;28;20554;-67
2022/06/08 12:54:48;;;;;;;2.22;0.95;;;9.10;99.90;;;;;;5034526;28;20405;-67
2022/06/08 12:57:25;;;;;;;1.98;0.70;;;9.00;99.90;;;;;;5031256;28;20038;-66
2022/06/08 12:59:56;;;;;;;4.18;0.57;;;9.00;99.90;;;;;;5032831;28;20037;-67
2022/06/08 13:02:26;;;;;;;3.03;0.60;;;9.00;99.90;;;;;;5034187;28;20069;-67
2022/06/08 13:04:54;;;;;;;1.83;0.60;;;9.00;99.90;;;;;;5020178;28;20026;-67
2022/06/08 13:07:25;;;;;;;1.00;0.60;;;8.90;99.90;;;;;;5032571;28;20033;-67
2022/06/08 13:09:52;;;;;;;2.55;0.82;;;9.00;99.90;;;;;;5041486;28;20029;-67
2022/06/08 13:12:24;;;;;;;3.35;0.68;;;9.00;99.90;;;;;;5035040;28;20080;-67
2022/06/08 13:14:52;;;;;;;2.88;0.85;;;9.00;99.90;;;;;;5046602;28;20105;-67
2022/06/08 13:17:21;;;;;;;2.42;0.60;;;9.00;99.90;;;;;;5020747;28;20055;-67
2022/06/08 13:19:48;;;;;;;2.35;0.50;;;9.00;99.90;;;;;;5040064;28;20033;-67
2022/06/08 13:22:15;;;;;;;1.52;0.60;;;9.00;99.90;;;;;;5026157;28;20037;-67
2022/06/08 13:24:42;;;;;;;3.47;0.93;;;9.00;99.90;;;;;;5038892;28;20506;-67
2022/06/08 13:27:17;;;;;;;3.50;0.70;;;8.90;99.90;;;;;;5039262;28;20113;-67
2022/06/08 13:29:45;;;;;;;1.25;0.50;;;8.90;99.90;;;;;;5020896;28;20022;-67
2022/06/08 13:32:18;;;;;;;2.47;0.43;;;8.90;99.90;;;;;;5015214;28;20037;-67
2022/06/08 13:34:46;;;;;;;3.92;0.73;;;8.80;99.90;;;;;;5025344;28;20025;-67
2022/06/08 13:37:41;;;;;;;3.03;0.80;;;8.80;99.90;;;;;;5029535;28;21201;-67
2022/06/08 13:40:22;;;;;;;4.75;0.88;;;8.80;99.90;;;;;;5041687;28;20033;-67
2022/06/08 13:42:50;;;;;;;3.05;1.77;;;8.80;99.90;;;;;;5017747;28;20099;-68